Time;durP1;ratioP1;P1;durP2;ratioP2;P2;SDS_P1;SDS_P2;PMS_P1;PMS_P2;Temp;Humidity;BMP_temperature;BMP_pressure;BME280_temperature;BME280_humidity;BME280_pressure;Samples;Min_cycle;Max_cycle;Signal;HPM_P1;HPM_P2
2023/04/14 00:02:24;;;;;;;;;1.00;1.00;;;;;23.01;34.90;100732.78;5076121;28;45351;-77
2023/04/14 00:04:53;;;;;;;;;1.33;1.33;;;;;22.71;34.97;100681.50;5075882;28;45482;-76
2023/04/14 00:07:18;;;;;;;;;1.33;1.33;;;;;22.92;34.69;100719.66;5075855;28;47083;-77
2023/04/14 00:09:43;;;;;;;;;3.00;1.33;;;;;22.89;34.88;100724.50;5075449;28;45281;-75
2023/04/14 00:12:09;;;;;;;;;2.00;1.00;;;;;22.96;34.63;100736.84;5075936;28;45380;-77
2023/04/14 00:14:34;;;;;;;;;1.00;1.00;;;;;22.92;34.92;100726.78;5075937;28;45452;-77
2023/04/14 00:17:00;;;;;;;;;2.00;2.00;;;;;22.90;34.49;100731.47;5075549;28;46089;-77
2023/04/14 00:19:25;;;;;;;;;1.00;1.00;;;;;22.95;34.84;100729.06;5075794;28;45355;-77
2023/04/14 00:21:51;;;;;;;;;1.00;1.00;;;;;22.85;34.57;100708.97;5075859;28;45442;-76
2023/04/14 00:24:16;;;;;;;;;3.00;2.00;;;;;22.83;34.66;100713.66;5075306;28;45386;-76
2023/04/14 00:26:42;;;;;;;;;1.00;1.00;;;;;22.89;34.71;100713.91;5075514;28;46408;-76
2023/04/14 00:29:07;;;;;;;;;1.00;1.00;;;;;22.90;35.07;100718.22;5075634;28;45431;-76
2023/04/14 00:31:32;;;;;;;;;2.00;2.00;;;;;22.90;34.75;100713.69;5075524;28;45360;-76
2023/04/14 00:33:58;;;;;;;;;2.00;1.00;;;;;22.93;34.61;100721.28;5075679;28;45384;-76
2023/04/14 00:36:23;;;;;;;;;4.00;2.00;;;;;22.89;34.95;100708.59;5075358;28;45382;-76
2023/04/14 00:38:48;;;;;;;;;0.00;0.00;;;;;22.89;34.71;100703.28;5074953;28;45328;-77
2023/04/14 00:41:14;;;;;;;;;1.00;1.00;;;;;22.91;35.02;100698.63;5075732;28;45309;-76
2023/04/14 00:43:39;;;;;;;;;0.33;0.00;;;;;22.94;34.91;100704.38;5078243;28;45283;-77
2023/04/14 00:46:05;;;;;;;;;1.00;1.00;;;;;22.92;34.56;100703.75;5078714;28;46005;-76
2023/04/14 00:48:31;;;;;;;;;1.00;1.00;;;;;22.94;34.91;100698.25;5078914;28;45395;-75
2023/04/14 00:50:56;;;;;;;;;0.33;0.33;;;;;22.93;34.39;100696.59;5079053;28;45451;-76
2023/04/14 00:53:22;;;;;;;;;1.67;0.67;;;;;22.91;34.47;100699.44;5078647;28;45355;-76
2023/04/14 00:55:48;;;;;;;;;1.00;1.00;;;;;22.85;34.86;100693.06;5079021;28;46403;-76
2023/04/14 00:58:14;;;;;;;;;1.67;1.67;;;;;22.79;35.05;100672.59;5078545;28;45371;-76
2023/04/14 01:00:40;;;;;;;;;0.33;0.33;;;;;22.76;34.76;100675.63;5078708;28;45424;-76
2023/04/14 01:03:06;;;;;;;;;1.00;1.00;;;;;22.88;34.54;100691.03;5078858;28;45453;-77
2023/04/14 01:05:33;;;;;;;;;0.67;0.67;;;;;22.92;34.64;100700.25;5077350;28;46276;-76
2023/04/14 01:07:59;;;;;;;;;1.00;1.00;;;;;22.95;34.61;100705.19;5078253;28;45364;-76
2023/04/14 01:10:31;;;;;;;;;0.67;0.67;;;;;22.95;34.82;100702.53;5078747;28;45439;-76
2023/04/14 01:13:11;;;;;;;;;1.00;0.67;;;;;22.94;34.85;100699.06;5078564;28;45362;-76
2023/04/14 01:15:58;;;;;;;;;0.00;0.00;;;;;22.96;34.24;100698.88;5078353;28;45309;-76
2023/04/14 01:18:41;;;;;;;;;0.33;0.33;;;;;22.96;34.89;100704.16;5078370;28;45285;-76
2023/04/14 01:21:16;;;;;;;;;0.67;0.67;;;;;22.96;34.83;100705.00;5078175;28;45316;-76
2023/04/14 01:24:10;;;;;;;;;3.00;2.00;;;;;22.90;34.65;100695.13;5078483;28;45439;-75
2023/04/14 01:26:37;;;;;;;;;0.00;0.00;;;;;22.97;34.39;100711.13;5078171;28;45308;-75
2023/04/14 01:29:30;;;;;;;;;1.00;1.00;;;;;22.95;34.37;100699.91;5078343;28;45309;-76
2023/04/14 01:32:09;;;;;;;;;0.00;0.00;;;;;22.78;34.76;100681.56;5078416;28;45418;-75
2023/04/14 01:34:48;;;;;;;;;3.67;1.00;;;;;22.92;34.46;100706.41;5078267;28;45501;-76
2023/04/14 01:37:16;;;;;;;;;0.00;0.00;;;;;22.92;34.53;100698.44;5069192;27;45437;-76
2023/04/14 01:39:47;;;;;;;;;1.00;1.00;;;;;22.90;34.21;100697.78;5077278;27;45450;-76
2023/04/14 01:42:16;;;;;;;;;0.00;0.00;;;;;22.84;34.92;100691.44;5098441;27;45359;-75
2023/04/14 01:44:43;;;;;;;;;1.00;1.00;;;;;22.82;34.89;100682.81;5092156;27;45403;-76
2023/04/14 01:47:12;;;;;;;;;1.00;1.00;;;;;22.58;34.75;100642.41;5077921;28;45998;-76
2023/04/14 01:49:40;;;;;;;;;2.33;2.00;;;;;22.69;34.33;100654.31;5077392;28;45442;-77
2023/04/14 01:52:09;;;;;;;;;2.00;2.00;;;;;22.90;34.36;100684.53;5077535;28;45482;-76
2023/04/14 01:54:37;;;;;;;;;1.00;1.00;;;;;22.80;34.48;100668.94;5077061;28;45332;-77
2023/04/14 01:57:05;;;;;;;;;0.33;0.33;;;;;22.88;34.33;100680.41;5077700;28;46920;-77
2023/04/14 01:59:33;;;;;;;;;1.00;1.00;;;;;22.59;34.88;100641.38;5073802;28;45451;-76
2023/04/14 02:02:01;;;;;;;;;0.00;0.00;;;;;22.78;34.73;100670.13;5075787;28;45329;-75
2023/04/14 02:04:28;;;;;;;;;1.00;1.00;;;;;22.81;34.31;100673.22;5077599;28;45617;-76
2023/04/14 02:06:58;;;;;;;;;0.00;0.00;;;;;22.79;35.00;100663.81;5077605;28;46300;-76
2023/04/14 02:09:26;;;;;;;;;0.00;0.00;;;;;22.87;34.16;100674.31;5059844;28;45535;-76
2023/04/14 02:11:54;;;;;;;;;1.00;1.00;;;;;22.87;34.72;100668.19;5077728;28;45372;-76
2023/04/14 02:14:21;;;;;;;;;2.00;0.67;;;;;22.71;34.91;100646.22;5077561;28;45360;-76
2023/04/14 02:16:48;;;;;;;;;1.67;1.67;;;;;22.84;34.65;100656.94;5077409;28;45481;-76
2023/04/14 02:19:20;;;;;;;;;0.00;0.00;;;;;22.71;34.73;100647.03;5077175;28;45402;-75
2023/04/14 02:21:49;;;;;;;;;1.00;1.00;;;;;22.83;34.35;100668.56;5077570;28;45395;-76
2023/04/14 02:24:15;;;;;;;;;2.00;1.00;;;;;22.80;35.00;100660.16;5077577;28;45379;-76
2023/04/14 02:26:52;;;;;;;;;1.67;1.67;;;;;22.82;34.62;100664.25;5077143;28;46392;-75
2023/04/14 02:29:21;;;;;;;;;0.00;0.00;;;;;22.74;34.68;100651.94;5077424;28;45511;-76
2023/04/14 02:32:01;;;;;;;;;1.00;0.00;;;;;22.84;34.54;100662.25;5077273;28;45531;-76
2023/04/14 02:34:32;;;;;;;;;0.33;0.33;;;;;22.78;34.35;100641.78;5076918;28;45321;-76
2023/04/14 02:37:01;;;;;;;;;2.33;1.00;;;;;22.88;34.68;100653.88;5076718;27;45537;-76
2023/04/14 02:39:31;;;;;;;;;1.00;1.00;;;;;22.87;34.69;100653.09;5058788;28;45430;-76
2023/04/14 02:42:06;;;;;;;;;0.00;0.00;;;;;22.88;34.23;100654.72;5077192;28;45376;-75
2023/04/14 02:44:36;;;;;;;;;1.00;1.00;;;;;22.89;34.28;100647.59;5077122;28;45316;-76
2023/04/14 02:47:08;;;;;;;;;1.00;1.00;;;;;22.89;34.57;100645.75;5076800;28;47168;-76
2023/04/14 02:49:36;;;;;;;;;2.33;1.00;;;;;22.85;34.50;100637.34;5076479;28;45369;-76
2023/04/14 02:52:05;;;;;;;;;1.00;0.00;;;;;22.90;34.27;100635.97;5077037;28;45486;-76
2023/04/14 02:54:34;;;;;;;;;1.33;0.33;;;;;22.91;34.13;100642.91;5076856;28;45472;-76
2023/04/14 02:57:01;;;;;;;;;1.00;1.00;;;;;22.79;34.34;100622.22;5076665;28;47011;-76
2023/04/14 02:59:28;;;;;;;;;0.67;0.67;;;;;22.91;34.20;100642.91;5076595;28;45325;-76
2023/04/14 03:01:55;;;;;;;;;1.67;1.67;;;;;22.63;34.53;100602.88;5077002;28;45429;-77
2023/04/14 03:04:21;;;;;;;;;1.00;1.00;;;;;22.90;34.13;100639.41;5076414;28;45508;-76
2023/04/14 03:06:47;;;;;;;;;1.00;1.00;;;;;22.65;34.25;100607.16;5076451;28;46568;-76
2023/04/14 03:09:13;;;;;;;;;2.00;1.00;;;;;22.79;34.30;100632.00;5076751;28;45377;-76
2023/04/14 03:11:40;;;;;;;;;0.33;0.33;;;;;22.83;34.05;100634.06;5076884;28;45484;-76
2023/04/14 03:14:06;;;;;;;;;0.67;0.67;;;;;22.82;34.03;100632.41;5076893;28;45403;-76
2023/04/14 03:16:33;;;;;;;;;1.00;1.00;;;;;22.75;34.30;100618.28;5076370;28;46183;-76
2023/04/14 03:19:02;;;;;;;;;1.00;1.00;;;;;22.77;34.13;100618.91;5076416;28;45303;-76
2023/04/14 03:21:29;;;;;;;;;2.00;1.00;;;;;22.73;34.17;100610.53;5076601;28;45335;-75
2023/04/14 03:23:56;;;;;;;;;1.67;1.00;;;;;22.82;34.59;100629.75;5058351;28;45238;-75
2023/04/14 03:26:24;;;;;;;;;1.00;1.00;;;;;22.79;34.55;100619.56;5076241;28;45336;-76
2023/04/14 03:28:53;;;;;;;;;0.67;0.67;;;;;22.74;34.36;100608.72;5076194;28;45323;-76
2023/04/14 03:31:23;;;;;;;;;0.00;0.00;;;;;22.82;34.26;100616.50;5076635;27;45427;-76
2023/04/14 03:33:56;;;;;;;;;0.00;0.00;;;;;22.82;34.55;100615.72;5076482;28;45611;-76
2023/04/14 03:36:24;;;;;;;;;1.00;1.00;;;;;22.80;34.17;100612.41;5076216;28;46224;-76
2023/04/14 03:38:54;;;;;;;;;0.67;0.67;;;;;22.76;34.14;100596.06;5075966;27;45377;-76
2023/04/14 03:41:21;;;;;;;;;0.33;0.00;;;;;22.72;34.34;100586.84;5076541;28;45396;-76
2023/04/14 03:43:53;;;;;;;;;0.00;0.00;;;;;22.73;34.43;100591.13;5076301;28;45470;-76
2023/04/14 03:46:19;;;;;;;;;0.33;0.33;;;;;22.74;34.49;100582.19;5075362;28;47129;-76
2023/04/14 03:48:47;;;;;;;;;1.00;1.00;;;;;22.70;34.01;100578.25;5076092;28;45527;-76
2023/04/14 03:51:15;;;;;;;;;0.00;0.00;;;;;22.78;34.63;100590.56;5076119;28;45280;-77
2023/04/14 03:53:43;;;;;;;;;1.00;1.00;;;;;22.76;34.55;100580.16;5057889;28;45453;-76
2023/04/14 03:56:12;;;;;;;;;1.67;1.00;;;;;22.78;34.53;100572.00;5075909;28;47536;-76
2023/04/14 03:58:39;;;;;;;;;1.00;0.00;;;;;22.72;34.33;100561.13;5075959;28;45467;-76
2023/04/14 04:01:05;;;;;;;;;0.00;0.00;;;;;22.79;34.08;100568.34;5075470;28;45303;-76
2023/04/14 04:03:33;;;;;;;;;0.00;0.00;;;;;22.68;34.08;100537.81;5076031;28;45487;-76
2023/04/14 04:05:59;;;;;;;;;0.00;0.00;;;;;22.54;34.33;100515.69;5075751;28;47061;-76
2023/04/14 04:08:25;;;;;;;;;0.00;0.00;;;;;22.77;34.34;100538.53;5075957;28;45373;-76
2023/04/14 04:10:52;;;;;;;;;2.00;1.00;;;;;22.77;34.08;100535.91;5074629;28;45429;-76
2023/04/14 04:13:19;;;;;;;;;0.67;0.67;;;;;22.85;34.35;100549.00;5075801;28;45529;-76
2023/04/14 04:15:46;;;;;;;;;0.00;0.00;;;;;22.78;33.68;100532.22;5075255;27;46490;-76
2023/04/14 04:18:15;;;;;;;;;0.00;0.00;;;;;22.82;34.23;100534.28;5077844;28;45365;-76
2023/04/14 04:20:41;;;;;;;;;0.00;0.00;;;;;22.72;33.83;100518.72;5079589;28;45462;-76
2023/04/14 04:23:08;;;;;;;;;1.00;1.00;;;;;22.84;33.72;100532.28;5079549;28;45424;-76
2023/04/14 04:25:39;;;;;;;;;1.00;1.00;;;;;22.83;34.02;100525.31;5079065;28;46300;-76
2023/04/14 04:28:05;;;;;;;;;0.00;0.00;;;;;22.62;33.82;100503.09;5079083;28;45470;-76
2023/04/14 04:30:32;;;;;;;;;1.00;1.00;;;;;22.80;34.19;100525.69;5079020;28;45373;-75
2023/04/14 04:33:00;;;;;;;;;0.00;0.00;;;;;22.78;34.16;100517.13;5079118;28;45421;-76
2023/04/14 04:35:27;;;;;;;;;1.00;1.00;;;;;22.73;34.45;100514.22;5079014;28;45457;-76
2023/04/14 04:37:54;;;;;;;;;0.33;0.33;;;;;22.78;34.41;100513.66;5078492;28;45294;-77
2023/04/14 04:40:19;;;;;;;;;2.00;0.00;;;;;22.76;33.84;100513.84;5079191;27;45415;-76
2023/04/14 04:42:45;;;;;;;;;0.00;0.00;;;;;22.77;34.27;100512.03;5079079;28;45455;-76
2023/04/14 04:45:10;;;;;;;;;4.00;1.00;;;;;22.74;33.81;100510.56;5078636;28;46074;-75
2023/04/14 04:47:36;;;;;;;;;1.00;0.00;;;;;22.77;34.13;100514.69;5078820;28;45467;-76
2023/04/14 04:50:01;;;;;;;;;0.00;0.00;;;;;22.69;33.99;100510.31;5079049;28;45389;-76
2023/04/14 04:52:26;;;;;;;;;0.00;0.00;;;;;22.76;33.83;100516.50;5090718;27;45676;-77
2023/04/14 04:54:52;;;;;;;;;1.00;1.00;;;;;22.74;34.26;100508.72;5099157;27;47057;-76
2023/04/14 04:57:18;;;;;;;;;0.00;0.00;;;;;22.59;33.85;100486.75;5087423;27;45324;-76
2023/04/14 04:59:43;;;;;;;;;0.00;0.00;;;;;22.71;33.91;100503.81;5060131;28;45397;-76
2023/04/14 05:02:08;;;;;;;;;0.00;0.00;;;;;22.72;34.33;100505.44;5078470;27;45286;-76
2023/04/14 05:04:34;;;;;;;;;2.67;0.00;;;;;22.72;33.90;100497.50;5078158;28;60620;-77
2023/04/14 05:07:01;;;;;;;;;0.00;0.00;;;;;22.63;34.40;100490.69;5078516;28;45576;-76
2023/04/14 05:09:26;;;;;;;;;2.33;1.00;;;;;22.76;34.35;100508.53;5078897;28;45298;-76
2023/04/14 05:11:51;;;;;;;;;0.50;0.50;;;;;22.65;34.19;100482.53;5078657;28;45288;-75
2023/04/14 05:14:17;;;;;;;;;0.00;0.00;;;;;22.76;34.11;100500.59;5077748;28;55053;-76
2023/04/14 05:16:42;;;;;;;;;0.00;0.00;;;;;22.52;33.64;100465.50;5078535;28;45343;-77
2023/04/14 05:19:07;;;;;;;;;0.00;0.00;;;;;22.76;33.89;100487.31;5078165;28;50555;-75
2023/04/14 05:21:33;;;;;;;;;2.00;0.00;;;;;22.60;34.17;100456.59;5078227;28;50048;-77
2023/04/14 05:23:59;;;;;;;;;0.00;0.00;;;;;22.77;33.87;100483.66;5078415;28;46544;-76
2023/04/14 05:26:25;;;;;;;;;1.00;1.00;;;;;22.63;34.00;100470.28;5076156;28;45420;-76
2023/04/14 05:28:50;;;;;;;;;0.00;0.00;;;;;22.78;33.82;100479.16;5076669;28;45337;-73
2023/04/14 05:31:15;;;;;;;;;0.00;0.00;;;;;22.74;34.06;100471.59;5078147;28;45387;-79
2023/04/14 05:33:41;;;;;;;;;0.00;0.00;;;;;22.70;33.90;100461.56;5077039;28;46109;-76
2023/04/14 05:36:06;;;;;;;;;0.33;0.33;;;;;22.78;33.74;100474.69;5077162;28;45348;-76
2023/04/14 05:38:32;;;;;;;;;2.00;0.00;;;;;22.79;34.05;100479.00;5077022;28;45649;-76
2023/04/14 05:40:57;;;;;;;;;0.33;0.33;;;;;22.66;34.16;100449.69;5077768;28;45436;-79
2023/04/14 05:43:22;;;;;;;;;1.00;1.00;;;;;22.77;34.28;100466.94;5077619;28;46333;-78
2023/04/14 05:45:48;;;;;;;;;0.00;0.00;;;;;22.79;34.27;100465.72;5077836;28;45449;-75
2023/04/14 05:48:13;;;;;;;;;0.00;0.00;;;;;22.78;34.50;100460.59;5078152;28;45593;-78
2023/04/14 05:50:39;;;;;;;;;1.00;1.00;;;;;22.82;34.44;100456.56;5075975;28;45516;-76
2023/04/14 05:53:05;;;;;;;;;0.00;0.00;;;;;22.73;34.28;100446.09;5077556;28;45371;-76
2023/04/14 05:55:31;;;;;;;;;0.00;0.00;;;;;22.81;34.76;100460.22;5077321;28;45503;-76
2023/04/14 05:57:57;;;;;;;;;0.33;0.33;;;;;22.83;34.84;100460.84;5077355;28;45535;-73
2023/04/14 06:00:24;;;;;;;;;0.00;0.00;;;;;22.79;34.17;100443.69;5088559;27;45408;-75
2023/04/14 06:02:50;;;;;;;;;0.00;0.00;;;;;22.84;34.82;100455.34;5097852;27;45427;-75
2023/04/14 06:05:16;;;;;;;;;3.33;1.00;;;;;22.82;34.41;100433.50;5086925;27;45381;-75
2023/04/14 06:07:41;;;;;;;;;0.00;0.00;;;;;22.77;34.33;100422.66;5059291;28;45655;-76
2023/04/14 06:10:08;;;;;;;;;0.00;0.00;;;;;22.94;34.40;100439.06;5077510;28;45428;-75
2023/04/14 06:12:33;;;;;;;;;1.00;0.00;;;;;22.95;34.16;100432.75;5077058;28;46342;-76
2023/04/14 06:14:58;;;;;;;;;0.00;0.00;;;;;22.95;34.11;100442.56;5076988;28;45366;-76
2023/04/14 06:17:24;;;;;;;;;0.33;0.00;;;;;22.86;34.20;100420.66;5077218;28;45484;-75
2023/04/14 06:19:49;;;;;;;;;1.00;1.00;;;;;22.93;34.26;100433.94;5077201;28;46140;-76
2023/04/14 06:22:18;;;;;;;;;0.00;0.00;;;;;22.87;34.65;100427.63;5076841;28;46187;-75
2023/04/14 06:24:44;;;;;;;;;0.67;0.67;;;;;22.95;33.97;100432.75;5077318;28;45245;-75
2023/04/14 06:27:10;;;;;;;;;1.00;0.00;;;;;22.84;34.44;100409.44;5070168;27;45379;-73
2023/04/14 06:29:35;;;;;;;;;0.00;0.00;;;;;22.91;34.24;100415.59;5067560;28;45288;-73
2023/04/14 06:32:00;;;;;;;;;0.00;0.00;;;;;22.98;34.32;100425.44;5076944;28;47006;-73
2023/04/14 06:34:26;;;;;;;;;1.00;0.00;;;;;22.99;34.09;100416.44;5077200;28;45272;-73
2023/04/14 06:36:51;;;;;;;;;1.00;0.67;;;;;22.97;34.55;100421.94;5076849;27;45293;-72
2023/04/14 06:39:18;;;;;;;;;0.00;0.00;;;;;22.99;34.55;100422.56;5076896;28;45388;-73
2023/04/14 06:41:44;;;;;;;;;1.00;1.00;;;;;23.00;34.32;100418.09;5076088;28;46269;-73
2023/04/14 06:44:09;;;;;;;;;1.00;1.00;;;;;22.88;34.29;100396.59;5076502;28;45352;-74
2023/04/14 06:46:35;;;;;;;;;0.33;0.33;;;;;22.95;34.04;100408.88;5076904;28;45344;-72
2023/04/14 06:49:02;;;;;;;;;1.33;1.00;;;;;22.99;33.85;100408.47;5076872;28;45356;-73
2023/04/14 06:51:28;;;;;;;;;1.00;0.00;;;;;22.93;34.08;100400.28;5076248;28;47463;-75
2023/04/14 06:53:53;;;;;;;;;2.00;0.00;;;;;22.91;34.40;100390.88;5076178;28;45433;-74
2023/04/14 06:56:18;;;;;;;;;0.67;0.00;;;;;22.99;34.01;100398.69;5076239;28;45430;-74
2023/04/14 06:58:44;;;;;;;;;0.33;0.33;;;;;22.95;33.97;100392.16;5076857;28;45340;-74
2023/04/14 07:01:09;;;;;;;;;0.00;0.00;;;;;22.92;34.63;100379.28;5075740;28;46981;-75
2023/04/14 07:03:35;;;;;;;;;0.00;0.00;;;;;22.91;34.28;100374.97;5076564;28;45402;-74
2023/04/14 07:06:10;;;;;;;;;0.00;0.00;;;;;22.97;33.83;100382.16;5076476;28;45327;-74
2023/04/14 07:08:36;;;;;;;;;0.00;0.00;;;;;22.99;34.29;100387.25;5076541;28;45308;-75
2023/04/14 07:11:04;;;;;;;;;0.00;0.00;;;;;22.99;33.79;100380.13;5076333;28;46132;-74
2023/04/14 07:13:30;;;;;;;;;0.00;0.00;;;;;23.01;33.81;100386.03;5076399;28;45320;-74
2023/04/14 07:15:55;;;;;;;;;0.00;0.00;;;;;22.92;34.14;100374.78;5076477;28;45394;-74
2023/04/14 07:18:21;;;;;;;;;1.00;1.00;;;;;22.90;34.48;100366.19;5075875;28;45673;-74
2023/04/14 07:20:53;;;;;;;;;0.33;0.33;;;;;22.98;34.35;100370.50;5057880;28;47578;-74
2023/04/14 07:23:19;;;;;;;;;0.33;0.33;;;;;22.98;34.31;100380.31;5076411;28;45536;-74
2023/04/14 07:25:50;;;;;;;;;1.00;1.00;;;;;22.96;34.18;100368.06;5057524;28;45547;-74
2023/04/14 07:28:15;;;;;;;;;0.00;0.00;;;;;22.97;34.52;100363.59;5076441;28;45467;-74
2023/04/14 07:30:40;;;;;;;;;0.33;0.00;;;;;22.95;33.84;100361.13;5076003;28;46069;-74
2023/04/14 07:33:06;;;;;;;;;0.00;0.00;;;;;22.96;34.19;100359.28;5075499;28;55832;-74
2023/04/14 07:35:31;;;;;;;;;0.00;0.00;;;;;22.95;33.96;100349.72;5075836;28;52091;-74
2023/04/14 07:37:56;;;;;;;;;0.00;0.00;;;;;22.91;34.38;100340.50;5075658;28;45334;-75
2023/04/14 07:40:21;;;;;;;;;0.67;0.67;;;;;22.81;33.88;100322.31;5075586;28;57392;-75
2023/04/14 07:42:47;;;;;;;;;1.00;1.00;;;;;22.91;34.29;100332.53;5076193;28;45379;-74
2023/04/14 07:45:12;;;;;;;;;2.00;0.67;;;;;22.88;34.01;100330.28;5076039;28;45406;-75
2023/04/14 07:47:37;;;;;;;;;0.00;0.00;;;;;22.81;34.17;100317.00;5075723;28;45394;-74
2023/04/14 07:50:03;;;;;;;;;0.00;0.00;;;;;22.85;34.06;100318.22;5075851;28;46347;-74
2023/04/14 07:52:29;;;;;;;;;2.67;0.00;;;;;22.84;34.46;100314.78;5074422;28;45459;-74
2023/04/14 07:54:54;;;;;;;;;0.33;0.33;;;;;22.55;34.60;100263.63;5076167;28;45371;-75
2023/04/14 07:57:20;;;;;;;;;0.00;0.00;;;;;22.74;34.04;100295.75;5076191;28;45316;-75
2023/04/14 07:59:45;;;;;;;;;1.00;1.00;;;;;22.83;34.47;100307.00;5075631;28;46858;-75
2023/04/14 08:02:11;;;;;;;;;0.00;0.00;;;;;22.79;33.96;100287.22;5075555;28;45472;-75
2023/04/14 08:04:36;;;;;;;;;0.67;0.67;;;;;22.74;33.91;100274.56;5089260;27;45450;-75
2023/04/14 08:07:01;;;;;;;;;0.00;0.00;;;;;22.74;34.02;100266.59;5095507;27;45469;-74
2023/04/14 08:09:27;;;;;;;;;0.67;0.00;;;;;22.83;33.94;100277.81;5082265;27;45364;-75
2023/04/14 08:11:52;;;;;;;;;0.00;0.00;;;;;22.74;34.45;100275.34;5075595;28;45329;-74
2023/04/14 08:14:18;;;;;;;;;0.00;0.00;;;;;22.84;34.51;100272.34;5075460;28;45359;-73
2023/04/14 08:16:43;;;;;;;;;0.00;0.00;;;;;22.78;34.18;100270.47;5075388;28;45316;-74
2023/04/14 08:19:09;;;;;;;;;3.33;1.67;;;;;22.78;34.32;100267.81;5075581;28;47086;-74
2023/04/14 08:21:34;;;;;;;;;0.00;0.00;;;;;22.62;34.02;100253.88;5074994;28;45356;-73
2023/04/14 08:23:59;;;;;;;;;1.00;0.33;;;;;22.85;33.92;100302.31;5075749;28;45380;-73
2023/04/14 08:26:26;;;;;;;;;2.00;0.00;;;;;22.85;34.19;100291.69;5075304;28;45325;-73
2023/04/14 08:28:52;;;;;;;;;1.00;1.00;;;;;22.86;33.90;100290.69;5075128;28;46020;-73
2023/04/14 08:31:17;;;;;;;;;0.00;0.00;;;;;22.76;34.40;100272.50;5075321;28;45398;-74
2023/04/14 08:33:42;;;;;;;;;0.00;0.00;;;;;22.84;34.09;100272.34;5075482;28;45430;-73
2023/04/14 08:36:08;;;;;;;;;0.00;0.00;;;;;22.90;34.60;100269.91;5074706;28;49602;-73
2023/04/14 08:38:33;;;;;;;;;1.67;0.00;;;;;22.82;34.07;100249.69;5074965;27;47106;-73
2023/04/14 08:41:02;;;;;;;;;0.00;0.00;;;;;22.87;34.49;100246.44;5075445;28;45387;-73
2023/04/14 08:43:27;;;;;;;;;1.00;0.00;;;;;22.91;34.11;100267.03;5075378;28;45256;-73
2023/04/14 08:45:55;;;;;;;;;0.00;0.00;;;;;22.90;34.16;100257.44;5075122;28;45225;-73
2023/04/14 08:48:21;;;;;;;;;1.00;1.00;;;;;22.93;34.05;100254.38;5057229;28;47217;-73
2023/04/14 08:51:21;;;;;;;;;1.00;1.00;;;;;22.94;34.18;100253.38;5074878;28;45718;-73
2023/04/14 08:53:47;;;;;;;;;2.00;1.00;;;;;22.94;34.37;100245.44;5052410;27;45835;-73
2023/04/14 08:56:16;;;;;;;;;0.00;0.00;;;;;22.92;34.63;100244.00;5052709;28;48167;-74
2023/04/14 08:58:42;;;;;;;;;0.00;0.00;;;;;22.96;34.37;100264.59;5072628;28;46129;-74
2023/04/14 09:01:08;;;;;;;;;0.00;0.00;;;;;22.89;34.36;100237.25;5054649;28;45386;-74
2023/04/14 09:03:34;;;;;;;;;0.00;0.00;;;;;22.93;34.23;100246.44;5053444;28;45470;-74
2023/04/14 09:05:59;;;;;;;;;1.00;0.00;;;;;22.85;34.01;100251.91;5054904;28;45724;-73
2023/04/14 09:08:26;;;;;;;;;0.00;0.00;;;;;22.99;34.57;100259.91;5067533;28;45777;-74
2023/04/14 09:10:53;;;;;;;;;0.00;0.00;;;;;22.98;34.30;100245.81;5076132;28;45550;-74
2023/04/14 09:13:20;;;;;;;;;0.00;0.00;;;;;22.89;34.52;100225.81;5076164;28;45337;-74
2023/04/14 09:15:45;;;;;;;;;0.33;0.33;;;;;22.98;34.08;100248.47;5076067;28;45364;-73
2023/04/14 09:18:11;;;;;;;;;0.00;0.00;;;;;22.96;34.30;100240.72;5075737;28;45940;-73
2023/04/14 09:20:36;;;;;;;;;1.33;0.00;;;;;22.95;34.32;100255.00;5075786;28;45376;-73
2023/04/14 09:23:03;;;;;;;;;0.00;0.00;;;;;22.87;34.45;100241.94;5075914;28;45421;-73
2023/04/14 09:25:29;;;;;;;;;0.00;0.00;;;;;22.94;34.62;100256.03;5076037;28;45480;-74
2023/04/14 09:27:54;;;;;;;;;0.00;0.00;;;;;22.79;34.55;100234.16;5075941;28;45360;-74
2023/04/14 09:30:20;;;;;;;;;0.00;0.00;;;;;22.90;34.27;100249.47;5081168;27;45396;-74
2023/04/14 09:32:49;;;;;;;;;2.00;0.00;;;;;22.82;34.74;100229.25;5084716;27;45350;-74
2023/04/14 09:35:15;;;;;;;;;0.00;0.00;;;;;22.74;34.27;100229.47;5077799;28;45480;-74
2023/04/14 09:37:45;;;;;;;;;0.00;0.00;;;;;22.85;34.16;100231.53;5077622;28;46204;-74
2023/04/14 09:40:27;;;;;;;;;1.00;0.00;;;;;22.92;34.41;100242.16;5077873;28;45464;-73
2023/04/14 09:42:54;;;;;;;;;1.00;1.00;;;;;22.93;34.09;100254.38;5077999;28;45406;-74
2023/04/14 09:45:21;;;;;;;;;0.00;0.00;;;;;22.93;34.65;100245.59;5078007;28;45342;-73
2023/04/14 09:47:47;;;;;;;;;0.00;0.00;;;;;22.67;34.03;100204.72;5077704;28;46987;-73
2023/04/14 09:50:13;;;;;;;;;0.00;0.00;;;;;22.85;34.54;100239.47;5077358;28;45373;-73
2023/04/14 09:52:41;;;;;;;;;0.00;0.00;;;;;22.84;34.21;100237.03;5077653;28;45303;-73
2023/04/14 09:55:14;;;;;;;;;2.33;0.00;;;;;22.90;34.37;100238.88;5078101;28;45368;-73
2023/04/14 09:57:46;;;;;;;;;0.00;0.00;;;;;22.92;34.13;100254.59;5077440;28;46372;-73
2023/04/14 10:00:14;;;;;;;;;1.00;1.00;;;;;22.92;34.20;100246.63;5077379;28;45451;-74
2023/04/14 10:02:50;;;;;;;;;0.00;0.00;;;;;22.89;34.32;100233.78;5077683;28;45405;-74
2023/04/14 10:05:18;;;;;;;;;1.00;1.00;;;;;22.90;34.02;100241.53;5077237;28;45387;-74
2023/04/14 10:07:44;;;;;;;;;1.67;1.33;;;;;22.91;34.12;100258.25;5077102;28;46175;-74
2023/04/14 10:10:12;;;;;;;;;0.00;0.00;;;;;22.90;34.56;100249.47;5077311;28;45514;-74
2023/04/14 10:12:40;;;;;;;;;0.00;0.00;;;;;22.89;34.20;100239.09;5077798;28;45586;-73
2023/04/14 10:15:08;;;;;;;;;0.00;0.00;;;;;22.87;34.44;100252.56;5076592;28;45462;-73
2023/04/14 10:17:33;;;;;;;;;3.00;0.00;;;;;22.84;34.50;100229.09;5076672;28;46954;-73
2023/04/14 10:19:59;;;;;;;;;0.00;0.00;;;;;22.81;34.09;100227.66;5077364;28;45444;-74
2023/04/14 10:22:26;;;;;;;;;0.00;0.00;;;;;22.85;34.24;100238.66;5077379;28;45410;-74
2023/04/14 10:24:52;;;;;;;;;0.00;0.00;;;;;22.77;34.34;100228.25;5077237;28;45395;-74
2023/04/14 10:27:18;;;;;;;;;0.00;0.00;;;;;22.82;34.59;100237.22;5077017;28;46355;-73
2023/04/14 10:29:44;;;;;;;;;0.00;0.00;;;;;22.72;34.30;100205.78;5077472;28;45365;-73
2023/04/14 10:32:13;;;;;;;;;0.00;0.00;;;;;22.82;34.77;100218.66;5076792;28;45167;-74
2023/04/14 10:34:55;;;;;;;;;1.00;0.00;;;;;22.79;34.17;100219.06;5077232;28;45375;-73
2023/04/14 10:37:20;;;;;;;;;0.00;0.00;;;;;22.81;34.36;100217.03;5069481;28;45443;-74
2023/04/14 10:39:58;;;;;;;;;0.00;0.00;;;;;22.81;34.34;100210.91;5077005;28;45301;-74
2023/04/14 10:42:23;;;;;;;;;0.00;0.00;;;;;22.80;34.69;100209.25;5076139;28;45537;-72
2023/04/14 10:45:04;;;;;;;;;2.00;1.00;;;;;22.79;34.61;100205.00;5057815;28;45518;-75
2023/04/14 10:47:30;;;;;;;;;0.67;0.00;;;;;22.81;34.23;100218.88;5074914;27;46412;-75
2023/04/14 10:49:57;;;;;;;;;2.00;0.00;;;;;22.79;34.79;100218.25;5086068;27;45435;-76
2023/04/14 10:52:24;;;;;;;;;0.67;0.00;;;;;22.80;34.78;100214.56;5071584;28;45416;-75
2023/04/14 10:55:01;;;;;;;;;0.00;0.00;;;;;22.80;34.74;100212.75;5076183;28;45458;-75
2023/04/14 10:57:36;;;;;;;;;0.00;0.00;;;;;22.81;34.82;100216.22;5076318;28;46361;-74
2023/04/14 11:00:19;;;;;;;;;1.00;1.00;;;;;22.82;34.54;100207.25;5074789;27;45360;-75
2023/04/14 11:03:01;;;;;;;;;0.33;0.33;;;;;22.83;34.88;100208.88;5067703;28;45484;-76
2023/04/14 11:05:26;;;;;;;;;0.00;0.00;;;;;22.66;34.69;100181.88;5076912;28;45491;-75
2023/04/14 11:07:55;;;;;;;;;0.00;0.00;;;;;22.73;34.80;100183.56;5076260;28;45336;-75
2023/04/14 11:10:20;;;;;;;;;0.00;0.00;;;;;22.84;35.12;100203.38;5063295;28;45788;-75
2023/04/14 11:12:47;;;;;;;;;0.00;0.00;;;;;22.84;34.91;100206.03;5076020;28;45482;-75
2023/04/14 11:15:14;;;;;;;;;0.00;0.00;;;;;22.85;35.20;100202.34;5075599;28;45582;-75
2023/04/14 11:17:41;;;;;;;;;0.00;0.00;;;;;22.85;35.16;100189.09;5056740;28;48529;-76
2023/04/14 11:20:18;;;;;;;;;1.33;0.00;;;;;22.85;35.24;100183.78;5069431;28;45264;-73
2023/04/14 11:22:46;;;;;;;;;2.00;0.00;;;;;22.87;34.66;100188.91;5076299;28;45424;-74
2023/04/14 11:25:15;;;;;;;;;3.00;0.00;;;;;22.77;34.69;100173.34;5075720;28;45499;-73
2023/04/14 11:27:42;;;;;;;;;0.00;0.00;;;;;22.84;35.25;100182.16;5071455;28;46213;-73